Weather at Quiberon Airport

Public forecast

Using degrees Celsius for public forecast. Weather courtesy of forecast.io.

Closest aviation weather report (METAR) to Quiberon Airport

Closest report is Vannes-Meucon Airport, 21.2 nm (39.2 km) NE. Retrieved 2021/09/20 04:30 UTC (27 minutes ago):

LFRV 200430Z AUTO 34005KT CAVOK 10/10 Q1022

Closest aviation forecast (TAF) to Quiberon Airport

Closest forecast is Lorient South Brittany (Bretagne Sud) Airport, 21.6 nm (40.1 km) NW. Retrieved 2021-09-20 00:00 UTC (5 hours ago):

TAF LFRH 192300Z 2000/2024 32005KT CAVOK PROB30 2000/2007 3000 BR BECMG 2006/2008 BKN007 BECMG 2010/2012 SCT040 PROB40 2022/2024 3000 BR